createdAt,value
2019-01-26T00:02:25.223Z,45.45
2019-01-26T00:07:37.977Z,44.33
2019-01-26T00:12:46.416Z,41.97
2019-01-26T00:17:59.211Z,39.70
2019-01-26T00:23:07.539Z,39.63
2019-01-26T00:28:18.427Z,37.67
2019-01-26T00:33:26.956Z,35.68
2019-01-26T00:38:35.612Z,34.63
2019-01-26T00:43:47.409Z,34.43
2019-01-26T00:48:56.441Z,32.47
2019-01-26T00:54:04.505Z,33.50
2019-01-26T00:59:13.571Z,31.60
2019-01-26T01:04:23.471Z,33.90
2019-01-26T01:09:32.620Z,31.57
2019-01-26T01:14:39.755Z,32.67
2019-01-26T01:19:47.223Z,35.40
2019-01-26T01:24:59.243Z,31.47
2019-01-26T01:30:07.350Z,28.20
2019-01-26T01:35:20.269Z,30.27
2019-01-26T01:40:30.131Z,28.50
2019-01-26T01:45:39.604Z,28.83
2019-01-26T01:50:56.581Z,29.07
2019-01-26T01:56:07.471Z,28.53
2019-01-26T02:01:17.083Z,28.57
2019-01-26T02:06:25.904Z,27.65
2019-01-26T02:11:38.720Z,27.83
2019-01-26T02:16:50.116Z,27.43
2019-01-26T02:22:00.002Z,27.33
2019-01-26T02:27:11.934Z,29.42
2019-01-26T02:32:26.874Z,30.70
2019-01-26T02:37:38.686Z,30.53
2019-01-26T02:42:46.261Z,28.80
2019-01-26T02:47:55.600Z,28.13
2019-01-26T02:53:07.333Z,31.00
2019-01-26T02:58:20.106Z,29.07
2019-01-26T03:03:29.067Z,30.63
2019-01-26T03:08:41.798Z,30.97
2019-01-26T03:13:50.550Z,31.00
2019-01-26T03:19:00.939Z,31.13
2019-01-26T03:24:09.344Z,33.77
2019-01-26T03:29:18.277Z,31.53
2019-01-26T03:34:28.470Z,34.93
2019-01-26T03:39:36.206Z,34.10
2019-01-26T03:44:47.921Z,33.87
2019-01-26T03:49:55.218Z,33.80
2019-01-26T03:55:04.356Z,32.17
2019-01-26T04:00:19.276Z,34.93
2019-01-26T04:05:26.765Z,32.37
2019-01-26T04:10:33.793Z,32.20
2019-01-26T04:15:42.194Z,30.50
2019-01-26T04:20:54.983Z,30.87
2019-01-26T04:26:09.396Z,26.67
2019-01-26T04:31:21.848Z,26.02
2019-01-26T04:36:31.136Z,25.07
2019-01-26T04:41:41.766Z,23.73
2019-01-26T04:46:51.798Z,23.37
2019-01-26T04:52:03.040Z,20.23
2019-01-26T04:57:11.206Z,19.73
2019-01-26T05:02:20.379Z,18.57
2019-01-26T05:07:33.901Z,17.93
2019-01-26T05:12:43.998Z,17.37
2019-01-26T05:17:53.936Z,16.48
2019-01-26T05:23:06.058Z,16.40
2019-01-26T05:28:17.067Z,16.75
2019-01-26T05:33:24.774Z,17.02
2019-01-26T05:38:33.318Z,15.60
2019-01-26T05:43:42.532Z,14.80
2019-01-26T05:48:53.642Z,17.33
2019-01-26T05:54:05.449Z,17.83
2019-01-26T05:59:17.443Z,17.75
2019-01-26T06:04:25.207Z,19.65
2019-01-26T06:09:53.479Z,19.47
2019-01-26T06:15:05.734Z,19.67
2019-01-26T06:20:13.928Z,20.60
2019-01-26T06:25:33.907Z,22.23
2019-01-26T06:30:48.933Z,21.90
2019-01-26T06:35:57.262Z,22.90
2019-01-26T06:41:05.608Z,23.60
2019-01-26T06:46:14.148Z,23.27
2019-01-26T06:51:20.458Z,22.03
2019-01-26T06:56:32.302Z,19.00
2019-01-26T07:01:41.860Z,21.77
2019-01-26T07:07:13.612Z,22.90
2019-01-26T07:12:19.825Z,23.22
2019-01-26T07:17:28.953Z,22.13
2019-01-26T07:22:42.328Z,21.63
2019-01-26T07:27:50.565Z,22.40
2019-01-26T07:33:01.714Z,21.63
2019-01-26T07:38:13.979Z,23.03
2019-01-26T07:43:21.192Z,23.40
2019-01-26T07:48:29.156Z,22.37
2019-01-26T07:53:37.802Z,22.80
2019-01-26T07:58:49.335Z,23.97
2019-01-26T08:03:57.617Z,22.77
2019-01-26T08:09:11.304Z,20.93
2019-01-26T08:14:19.578Z,21.93
2019-01-26T08:19:25.859Z,21.77
2019-01-26T08:24:35.974Z,23.00
2019-01-26T08:29:47.792Z,22.53
2019-01-26T08:34:56.741Z,21.17
2019-01-26T08:40:03.175Z,22.87
2019-01-26T08:45:12.731Z,22.33
2019-01-26T08:50:27.065Z,19.73
2019-01-26T08:55:36.419Z,20.65
2019-01-26T09:00:44.498Z,20.20
2019-01-26T09:06:09.186Z,21.00
2019-01-26T09:11:16.903Z,20.65
2019-01-26T09:16:27.658Z,19.32
2019-01-26T09:21:39.284Z,18.70
2019-01-26T09:26:49.710Z,17.80
2019-01-26T09:31:58.301Z,20.00
2019-01-26T09:37:11.522Z,20.27
2019-01-26T09:42:19.291Z,17.97
2019-01-26T09:47:28.426Z,19.20
2019-01-26T09:52:40.105Z,18.50
2019-01-26T09:57:52.981Z,18.60
2019-01-26T10:03:03.887Z,16.87
2019-01-26T10:08:11.264Z,20.27
2019-01-26T10:13:18.622Z,18.98
2019-01-26T10:18:25.895Z,20.87
2019-01-26T10:23:40.011Z,20.88
2019-01-26T10:28:50.921Z,19.47
2019-01-26T10:34:00.156Z,20.87
2019-01-26T10:39:15.684Z,20.27
2019-01-26T10:44:28.794Z,17.10
2019-01-26T10:49:37.325Z,15.20
2019-01-26T10:54:49.315Z,13.67
2019-01-26T11:00:02.920Z,11.23
2019-01-26T11:05:12.773Z,10.37
2019-01-26T11:10:22.951Z,10.20
2019-01-26T11:15:34.564Z,10.47
2019-01-26T11:20:46.181Z,12.57
2019-01-26T11:25:59.529Z,12.00
2019-01-26T11:31:10.310Z,14.40
2019-01-26T11:36:21.106Z,14.93
2019-01-26T11:41:29.243Z,14.67
2019-01-26T11:46:57.571Z,16.47
2019-01-26T11:52:10.859Z,16.33
2019-01-26T11:57:26.798Z,15.95
2019-01-26T12:02:41.966Z,14.78
2019-01-26T12:07:50.209Z,13.63
2019-01-26T12:13:01.064Z,15.07
2019-01-26T12:18:16.046Z,15.70
2019-01-26T12:23:26.825Z,12.53
2019-01-26T12:28:38.141Z,10.67
2019-01-26T12:33:50.758Z,9.93
2019-01-26T12:39:03.282Z,8.77
2019-01-26T12:44:12.229Z,10.37
2019-01-26T12:49:29.465Z,9.78
2019-01-26T12:54:34.511Z,10.53
2019-01-26T12:59:57.060Z,9.60
2019-01-26T13:05:06.779Z,10.00
2019-01-26T13:10:22.604Z,8.90
2019-01-26T13:15:31.685Z,8.10
2019-01-26T13:20:44.279Z,8.33
2019-01-26T13:25:53.365Z,7.53
2019-01-26T13:31:04.263Z,5.90
2019-01-26T13:36:14.151Z,4.10
2019-01-26T13:41:21.004Z,3.55
2019-01-26T13:46:30.893Z,3.10
2019-01-26T13:51:42.793Z,3.23
2019-01-26T13:56:56.083Z,3.27
2019-01-26T14:02:03.022Z,3.30
2019-01-26T14:07:12.811Z,3.27
2019-01-26T14:12:22.086Z,2.10
2019-01-26T14:17:30.932Z,2.17
2019-01-26T14:22:43.894Z,1.70
2019-01-26T14:27:51.327Z,2.23
2019-01-26T14:33:04.545Z,1.77
2019-01-26T14:38:19.078Z,2.00
2019-01-26T14:43:26.103Z,2.50
2019-01-26T14:48:35.245Z,2.93
2019-01-26T14:53:47.687Z,4.43
2019-01-26T14:58:53.780Z,6.33
2019-01-26T15:04:02.049Z,9.17
2019-01-26T15:09:12.266Z,10.95
2019-01-26T15:14:25.082Z,11.65
2019-01-26T15:19:34.406Z,11.88
2019-01-26T15:24:42.883Z,12.40
2019-01-26T15:29:51.881Z,12.00
2019-01-26T15:35:01.000Z,12.33
2019-01-26T15:40:12.616Z,12.70
2019-01-26T15:45:31.369Z,12.63
2019-01-26T15:50:42.001Z,12.87
2019-01-26T15:55:48.260Z,13.57
2019-01-26T16:00:55.461Z,12.80
2019-01-26T16:06:04.859Z,11.37
2019-01-26T16:11:13.895Z,10.53
2019-01-26T16:16:24.029Z,9.13
2019-01-26T16:21:33.922Z,7.60
2019-01-26T16:26:42.578Z,7.40
2019-01-26T16:31:51.658Z,6.37
2019-01-26T16:37:02.510Z,7.20
2019-01-26T16:42:16.395Z,8.23
2019-01-26T16:47:31.810Z,7.72
2019-01-26T16:52:41.381Z,8.53
2019-01-26T16:57:54.881Z,8.08
2019-01-26T17:03:05.669Z,8.83
2019-01-26T17:08:18.444Z,9.30
2019-01-26T17:13:27.413Z,8.68
2019-01-26T17:18:37.778Z,8.63
2019-01-26T17:23:48.033Z,9.60
2019-01-26T17:29:05.879Z,10.07
2019-01-26T17:34:14.433Z,10.53
2019-01-26T17:39:23.682Z,11.25
2019-01-26T17:44:38.850Z,11.27
2019-01-26T17:49:51.434Z,11.13
2019-01-26T17:55:04.164Z,10.93
2019-01-26T18:00:27.079Z,11.73
2019-01-26T18:05:42.077Z,10.83
2019-01-26T18:10:48.248Z,11.00
2019-01-26T18:16:03.601Z,9.63
2019-01-26T18:21:14.906Z,9.97
2019-01-26T18:26:27.393Z,9.23
2019-01-26T18:31:39.140Z,10.23
2019-01-26T18:36:52.616Z,10.43
2019-01-26T18:42:01.783Z,11.90
2019-01-26T18:47:10.022Z,11.20
2019-01-26T18:52:17.299Z,10.83
2019-01-26T18:57:28.156Z,11.48
2019-01-26T19:02:38.051Z,11.60
2019-01-26T19:07:48.931Z,11.43
2019-01-26T19:13:00.560Z,12.07
2019-01-26T19:18:11.817Z,11.60
2019-01-26T19:23:24.515Z,12.85
2019-01-26T19:28:35.665Z,12.87
2019-01-26T19:33:45.359Z,13.77
2019-01-26T19:38:55.816Z,13.17
2019-01-26T19:44:08.698Z,14.80
2019-01-26T19:49:18.690Z,13.72
2019-01-26T19:54:30.028Z,13.50
2019-01-26T19:59:39.897Z,15.73
2019-01-26T20:04:51.782Z,14.50
2019-01-26T20:10:01.511Z,14.03
2019-01-26T20:15:13.295Z,13.30
2019-01-26T20:20:27.176Z,12.23
2019-01-26T20:25:41.252Z,12.93
2019-01-26T20:30:50.791Z,13.07
2019-01-26T20:35:58.537Z,13.87
2019-01-26T20:46:38.440Z,11.83
2019-01-26T20:51:46.645Z,10.50
2019-01-26T20:56:55.843Z,11.37
2019-01-26T21:02:04.700Z,10.07
2019-01-26T21:07:13.764Z,10.20
2019-01-26T21:12:23.526Z,11.50
2019-01-26T21:17:36.228Z,11.50
2019-01-26T21:22:48.173Z,11.90
2019-01-26T21:28:53.071Z,10.93
2019-01-26T21:34:02.717Z,11.10
2019-01-26T21:39:13.453Z,10.57
2019-01-26T21:44:22.372Z,11.12
2019-01-26T21:49:29.658Z,10.80
2019-01-26T21:54:37.860Z,10.50
2019-01-26T21:59:48.513Z,9.97
2019-01-26T22:04:57.743Z,9.90
2019-01-26T22:10:09.996Z,9.77
2019-01-26T22:15:20.235Z,9.90
2019-01-26T22:20:31.105Z,7.47
2019-01-26T22:25:40.933Z,10.17
2019-01-26T22:30:53.068Z,8.93
2019-01-26T22:36:06.545Z,9.37
2019-01-26T22:41:18.980Z,8.47
2019-01-26T22:46:28.775Z,7.10
2019-01-26T22:51:37.355Z,7.97
2019-01-26T22:56:44.669Z,7.77
2019-01-26T23:01:55.621Z,7.77
2019-01-26T23:07:33.049Z,6.23
2019-01-26T23:13:25.541Z,7.20
2019-01-26T23:18:57.856Z,7.37
2019-01-26T23:24:36.224Z,7.23
2019-01-26T23:30:25.058Z,8.37
2019-01-26T23:35:33.484Z,9.43
2019-01-26T23:40:41.331Z,8.97
2019-01-26T23:45:59.653Z,8.60
2019-01-26T23:51:10.498Z,9.17
2019-01-26T23:56:21.257Z,9.65
